Time,TemperatureF,DewpointF,PressureIn,WindDirection,WindDirectionDegrees,WindSpeedMPH,WindSpeedGustMPH,Humidity,HourlyPrecipIn,Conditions,Clouds,dailyrainin,SolarRadiationWatts/m^2,SoftwareType,DateUTC
2014-12-25 00:00:00,37.0,34.0,-100.00,SW,227,7.0,12.0,88,-99.99,,,0.02,0.000000,,2014-12-25 08:00:00,
2014-12-25 00:42:00,37.0,34.0,-100.00,SW,227,7.0,12.0,88,-99.99,,,0.02,0.000000,,2014-12-25 08:42:00,
2014-12-25 00:52:00,37.0,34.0,-100.00,SW,227,7.0,12.0,88,-99.99,,,0.02,0.000000,,2014-12-25 08:52:00,
2014-12-25 01:00:00,36.0,34.0,-100.00,West,273,2.0,4.0,92,-99.99,,,0.02,0.000000,,2014-12-25 09:00:00,
2014-12-25 01:44:00,36.0,34.0,-100.00,West,273,2.0,4.0,92,-99.99,,,0.02,0.000000,,2014-12-25 09:44:00,
2014-12-25 01:53:00,36.0,34.0,-100.00,West,273,2.0,4.0,92,-99.99,,,0.02,0.000000,,2014-12-25 09:53:00,
2014-12-25 02:00:00,36.0,33.0,-100.00,SSW,212,4.0,7.0,90,-99.99,,,0.02,0.000000,,2014-12-25 10:00:00,
2014-12-25 02:43:00,36.0,33.0,-100.00,SSW,212,4.0,7.0,90,-99.99,,,0.02,0.000000,,2014-12-25 10:43:00,
2014-12-25 02:53:00,36.0,33.0,-100.00,SSW,212,4.0,7.0,90,-99.99,,,0.02,0.000000,,2014-12-25 10:53:00,
2014-12-25 03:00:00,34.0,32.0,-100.00,SW,215,3.0,5.0,91,-99.99,,,0.02,0.000000,,2014-12-25 11:00:00,
2014-12-25 03:42:00,34.0,32.0,-100.00,SW,215,3.0,5.0,91,-99.99,,,0.02,0.000000,,2014-12-25 11:42:00,
2014-12-25 03:52:00,34.0,32.0,-100.00,SW,215,3.0,5.0,91,-99.99,,,0.02,0.000000,,2014-12-25 11:52:00,
2014-12-25 04:00:00,33.0,32.0,-100.00,SSE,161,1.0,3.0,93,-99.99,,,0.02,0.000000,,2014-12-25 12:00:00,
2014-12-25 04:43:00,33.0,32.0,-100.00,SSE,161,1.0,3.0,93,-99.99,,,0.02,0.000000,,2014-12-25 12:43:00,
2014-12-25 04:52:00,33.0,32.0,-100.00,SSE,161,1.0,3.0,93,-99.99,,,0.02,0.000000,,2014-12-25 12:52:00,
2014-12-25 05:00:00,33.0,32.0,-100.00,SSW,195,3.0,4.0,95,-99.99,,,0.02,0.000000,,2014-12-25 13:00:00,
2014-12-25 05:42:00,33.0,32.0,-100.00,SSW,195,3.0,4.0,95,-99.99,,,0.02,0.000000,,2014-12-25 13:42:00,
2014-12-25 05:52:00,33.0,32.0,-100.00,SSW,195,3.0,4.0,95,-99.99,,,0.02,0.000000,,2014-12-25 13:52:00,
2014-12-25 06:00:00,33.0,31.0,-100.00,SSE,166,2.0,3.0,94,-99.99,,,0.02,0.000000,,2014-12-25 14:00:00,
2014-12-25 06:42:00,33.0,31.0,-100.00,SSE,166,2.0,3.0,94,-99.99,,,0.02,0.000000,,2014-12-25 14:42:00,
2014-12-25 06:52:00,33.0,31.0,-100.00,SSE,166,2.0,3.0,94,-99.99,,,0.02,0.000000,,2014-12-25 14:52:00,
2014-12-25 07:00:00,31.0,30.0,-100.00,SE,135,2.0,3.0,96,-99.99,,,0.02,0.000000,,2014-12-25 15:00:00,
2014-12-25 07:53:00,31.0,30.0,-100.00,SE,135,2.0,3.0,96,-99.99,,,0.02,0.000000,,2014-12-25 15:53:00,
2014-12-25 08:00:00,32.0,31.0,-100.00,SE,124,3.0,4.0,97,-99.99,,,0.02,10.580000,,2014-12-25 16:00:00,
2014-12-25 08:43:00,32.0,31.0,-100.00,SE,124,3.0,4.0,97,-99.99,,,0.02,10.580000,,2014-12-25 16:43:00,
2014-12-25 08:53:00,32.0,31.0,-100.00,SE,124,3.0,4.0,97,-99.99,,,0.02,10.580000,,2014-12-25 16:53:00,
2014-12-25 09:00:00,35.0,32.0,-100.00,SE,137,3.0,4.0,91,-99.99,,,0.01,101.919998,,2014-12-25 17:00:00,
2014-12-25 09:43:00,35.0,32.0,-100.00,SE,137,3.0,4.0,91,-99.99,,,0.01,101.919998,,2014-12-25 17:43:00,
2014-12-25 09:52:00,35.0,32.0,-100.00,SE,137,3.0,4.0,91,-99.99,,,0.01,101.919998,,2014-12-25 17:52:00,
2014-12-25 10:00:00,37.0,35.0,-100.00,South,188,2.0,4.0,92,-99.99,,,0.01,111.800003,,2014-12-25 18:00:00,
2014-12-25 10:42:00,37.0,35.0,-100.00,South,188,2.0,4.0,92,-99.99,,,0.01,111.800003,,2014-12-25 18:42:00,
2014-12-25 10:52:00,37.0,35.0,-100.00,South,188,2.0,4.0,92,-99.99,,,0.01,111.800003,,2014-12-25 18:52:00,
2014-12-25 11:00:00,42.0,39.0,-100.00,WSW,238,1.0,4.0,89,-99.99,,,0.00,314.839996,,2014-12-25 19:00:00,
2014-12-25 11:42:00,42.0,39.0,-100.00,WSW,238,1.0,4.0,89,-99.99,,,0.00,314.839996,,2014-12-25 19:42:00,
2014-12-25 11:52:00,42.0,39.0,-100.00,WSW,238,1.0,4.0,89,-99.99,,,0.00,314.839996,,2014-12-25 19:52:00,
2014-12-25 12:00:00,41.0,36.0,-100.00,West,266,2.0,4.0,83,-99.99,,,0.00,120.169998,,2014-12-25 20:00:00,
2014-12-25 12:42:00,41.0,36.0,-100.00,West,266,2.0,4.0,83,-99.99,,,0.00,120.169998,,2014-12-25 20:42:00,
2014-12-25 12:53:00,41.0,36.0,-100.00,West,266,2.0,4.0,83,-99.99,,,0.00,120.169998,,2014-12-25 20:53:00,
2014-12-25 13:00:00,42.0,37.0,-100.00,NE,36,1.0,3.0,81,-99.99,,,0.00,143.759995,,2014-12-25 21:00:00,
2014-12-25 13:43:00,42.0,37.0,-100.00,NE,36,1.0,3.0,81,-99.99,,,0.00,143.759995,,2014-12-25 21:43:00,
2014-12-25 13:53:00,42.0,37.0,-100.00,NE,36,1.0,3.0,81,-99.99,,,0.00,143.759995,,2014-12-25 21:53:00,
2014-12-25 14:00:00,45.0,39.0,-100.00,ESE,108,1.0,2.0,77,-99.99,,,0.00,168.750000,,2014-12-25 22:00:00,
2014-12-25 14:42:00,45.0,39.0,-100.00,ESE,108,1.0,2.0,77,-99.99,,,0.00,168.750000,,2014-12-25 22:42:00,
2014-12-25 14:53:00,45.0,39.0,-100.00,ESE,108,1.0,2.0,77,-99.99,,,0.00,168.750000,,2014-12-25 22:53:00,
2014-12-25 15:00:00,46.0,38.0,-100.00,North,-999,0.0,0.0,74,-99.99,,,0.00,125.290001,,2014-12-25 23:00:00,
2014-12-25 15:42:00,46.0,38.0,-100.00,North,-999,0.0,0.0,74,-99.99,,,0.00,125.290001,,2014-12-25 23:42:00,
2014-12-25 15:53:00,46.0,38.0,-100.00,North,-999,0.0,0.0,74,-99.99,,,0.00,125.290001,,2014-12-25 23:53:00,
2014-12-25 16:00:00,43.0,37.0,-100.00,East,89,1.0,2.0,77,-99.99,,,0.00,28.940001,,2014-12-26 00:00:00,
2014-12-25 16:42:00,43.0,37.0,-100.00,East,89,1.0,2.0,77,-99.99,,,0.00,28.940001,,2014-12-26 00:42:00,
2014-12-25 16:52:00,43.0,37.0,-100.00,East,89,1.0,2.0,77,-99.99,,,0.00,28.940001,,2014-12-26 00:52:00,
2014-12-25 17:00:00,42.0,36.0,-100.00,SE,124,2.0,3.0,80,-99.99,,,0.00,0.000000,,2014-12-26 01:00:00,
2014-12-25 17:42:00,42.0,36.0,-100.00,SE,124,2.0,3.0,80,-99.99,,,0.00,0.000000,,2014-12-26 01:42:00,
2014-12-25 17:52:00,42.0,36.0,-100.00,SE,124,2.0,3.0,80,-99.99,,,0.00,0.000000,,2014-12-26 01:52:00,
2014-12-25 18:00:00,42.0,36.0,-100.00,South,190,3.0,6.0,81,-99.99,,,0.00,0.000000,,2014-12-26 02:00:00,
2014-12-25 18:42:00,42.0,36.0,-100.00,South,190,3.0,6.0,81,-99.99,,,0.00,0.000000,,2014-12-26 02:42:00,
2014-12-25 18:52:00,42.0,36.0,-100.00,South,190,3.0,6.0,81,-99.99,,,0.00,0.000000,,2014-12-26 02:52:00,
2014-12-25 19:00:00,39.0,34.0,-100.00,SSE,156,2.0,4.0,82,-99.99,,,0.00,0.000000,,2014-12-26 03:00:00,
2014-12-25 19:43:00,39.0,34.0,-100.00,SSE,156,2.0,4.0,82,-99.99,,,0.00,0.000000,,2014-12-26 03:43:00,
2014-12-25 19:53:00,39.0,34.0,-100.00,SSE,156,2.0,4.0,82,-99.99,,,0.00,0.000000,,2014-12-26 03:53:00,
2014-12-25 20:00:00,39.0,34.0,-100.00,WNW,284,1.0,2.0,82,-99.99,,,0.00,0.000000,,2014-12-26 04:00:00,
2014-12-25 20:43:00,39.0,34.0,-100.00,WNW,284,1.0,2.0,82,-99.99,,,0.00,0.000000,,2014-12-26 04:43:00,
2014-12-25 20:53:00,39.0,34.0,-100.00,WNW,284,1.0,2.0,82,-99.99,,,0.00,0.000000,,2014-12-26 04:53:00,
2014-12-25 21:00:00,40.0,34.0,-100.00,SW,222,5.0,9.0,79,-99.99,,,0.00,0.000000,,2014-12-26 05:00:00,
2014-12-25 21:42:00,40.0,34.0,-100.00,SW,222,5.0,9.0,79,-99.99,,,0.00,0.000000,,2014-12-26 05:42:00,
2014-12-25 21:53:00,40.0,34.0,-100.00,SW,222,5.0,9.0,79,-99.99,,,0.00,0.000000,,2014-12-26 05:53:00,
2014-12-25 22:00:00,38.0,32.0,-100.00,SW,218,6.0,9.0,79,-99.99,,,0.00,0.000000,,2014-12-26 06:00:00,
2014-12-25 22:42:00,38.0,32.0,-100.00,SW,218,6.0,9.0,79,-99.99,,,0.00,0.000000,,2014-12-26 06:42:00,
2014-12-25 22:52:00,38.0,32.0,-100.00,SW,218,6.0,9.0,79,-99.99,,,0.00,0.000000,,2014-12-26 06:52:00,